Time;durP1;ratioP1;P1;durP2;ratioP2;P2;SDS_P1;SDS_P2;PMS_P1;PMS_P2;Temp;Humidity;BMP_temperature;BMP_pressure;BME280_temperature;BME280_humidity;BME280_pressure;Samples;Min_cycle;Max_cycle;Signal;HPM_P1;HPM_P2
2024/01/09 00:00:33;;;;;;;2.80;2.40;;;;;;;12.76;48.58;99386.98;105541;1254;65925;-40
2024/01/09 00:02:59;;;;;;;3.50;2.50;;;;;;;12.75;48.55;99392.52;105597;1253;72328;-43
2024/01/09 00:05:29;;;;;;;2.90;2.50;;;;;;;12.75;48.52;99398.10;105554;1257;61323;-42
2024/01/09 00:07:56;;;;;;;2.60;2.30;;;;;;;12.75;48.53;99405.84;105768;1253;61429;-42
2024/01/09 00:10:23;;;;;;;2.60;2.40;;;;;;;12.75;48.61;99410.19;105652;1253;74585;-40
2024/01/09 00:12:49;;;;;;;2.50;2.20;;;;;;;12.74;48.58;99411.76;105566;1257;64725;-41
2024/01/09 00:15:16;;;;;;;2.90;2.40;;;;;;;12.74;48.57;99412.46;105533;1253;72636;-41
2024/01/09 00:17:43;;;;;;;2.90;2.50;;;;;;;12.74;48.56;99413.37;105647;1257;61165;-42
2024/01/09 00:20:10;;;;;;;3.10;2.40;;;;;;;12.74;48.51;99409.67;105708;1253;61336;-42
2024/01/09 00:22:37;;;;;;;2.90;2.50;;;;;;;12.73;48.61;99405.42;105831;1254;74596;-40
2024/01/09 00:25:05;;;;;;;2.90;2.50;;;;;;;12.73;48.62;99403.53;105675;1250;64776;-40
2024/01/09 00:27:32;;;;;;;2.60;2.40;;;;;;;12.72;48.50;99402.34;105881;1252;71188;-40
2024/01/09 00:29:59;;;;;;;2.70;2.40;;;;;;;12.72;48.60;99405.67;105885;1257;61847;-40
2024/01/09 00:32:26;;;;;;;2.70;2.40;;;;;;;12.72;48.58;99408.30;105984;1251;61332;-40
2024/01/09 00:34:53;;;;;;;2.80;2.60;;;;;;;12.72;48.56;99410.14;105985;1251;74609;-40
2024/01/09 00:37:19;;;;;;;2.90;2.50;;;;;;;12.71;48.52;99411.22;106012;1256;65855;-40
2024/01/09 00:39:48;;;;;;;3.00;2.50;;;;;;;12.71;48.51;99415.09;105882;1251;72386;-40
2024/01/09 00:42:14;;;;;;;3.00;2.40;;;;;;;12.71;48.55;99417.56;105636;1257;61228;-40
2024/01/09 00:44:41;;;;;;;2.80;2.40;;;;;;;12.71;48.49;99419.01;105444;1253;61418;-42
2024/01/09 00:47:08;;;;;;;4.20;2.50;;;;;;;12.70;48.58;99418.90;105536;1253;74554;-40
2024/01/09 00:49:34;;;;;;;2.70;2.40;;;;;;;12.70;48.56;99423.41;105469;1257;66432;-40
2024/01/09 00:52:02;;;;;;;2.60;2.40;;;;;;;12.70;48.48;99423.26;105458;1253;72624;-41
2024/01/09 00:54:29;;;;;;;2.70;2.30;;;;;;;12.69;48.52;99419.77;105661;1257;61617;-41
2024/01/09 00:56:55;;;;;;;2.50;2.20;;;;;;;12.69;48.59;99415.47;105716;1253;61457;-41
2024/01/09 00:59:22;;;;;;;3.10;2.40;;;;;;;12.69;48.55;99413.53;105743;1254;75055;-41
2024/01/09 01:01:49;;;;;;;2.40;2.20;;;;;;;12.69;48.62;99418.05;105959;1256;66033;-41
2024/01/09 01:04:17;;;;;;;4.00;2.60;;;;;;;12.68;48.58;99422.99;105748;1253;72590;-41
2024/01/09 01:06:44;;;;;;;3.00;2.20;;;;;;;12.68;48.48;99429.07;106138;1257;61350;-41
2024/01/09 01:09:11;;;;;;;3.90;2.30;;;;;;;12.68;48.50;99430.63;105613;1253;61353;-41
2024/01/09 01:11:38;;;;;;;2.80;2.50;;;;;;;12.68;48.50;99437.23;106115;1254;74316;-41
2024/01/09 01:14:05;;;;;;;3.30;2.10;;;;;;;12.67;48.44;99439.82;105721;1256;66104;-41
2024/01/09 01:16:32;;;;;;;3.20;2.40;;;;;;;12.68;48.58;99439.98;105310;1253;163494;-41
2024/01/09 01:18:58;;;;;;;3.90;2.70;;;;;;;12.67;48.50;99443.16;105570;1256;61645;-41
2024/01/09 01:21:25;;;;;;;2.80;2.30;;;;;;;12.67;48.45;99443.80;105619;1253;61340;-41
2024/01/09 01:23:51;;;;;;;3.50;2.40;;;;;;;12.67;48.45;99446.70;105685;1256;73483;-39
2024/01/09 01:26:18;;;;;;;2.50;2.30;;;;;;;12.67;48.46;99449.83;105784;1251;65020;-40
2024/01/09 01:28:45;;;;;;;2.80;2.20;;;;;;;12.66;48.39;99451.33;105787;1252;72460;-41
2024/01/09 01:31:11;;;;;;;3.10;2.60;;;;;;;12.66;48.40;99450.36;105931;1254;61279;-40
2024/01/09 01:33:38;;;;;;;2.80;2.60;;;;;;;12.65;48.38;99455.56;106024;1250;61240;-42
2024/01/09 01:36:05;;;;;;;2.60;2.40;;;;;;;12.65;48.41;99461.15;105909;1253;74550;-42
2024/01/09 01:38:32;;;;;;;2.90;2.50;;;;;;;12.65;48.41;99456.69;105885;1254;65982;-39
2024/01/09 01:40:58;;;;;;;2.50;2.30;;;;;;;12.65;48.40;99458.73;105865;1252;72573;-42
2024/01/09 01:43:25;;;;;;;3.10;2.50;;;;;;;12.65;48.33;99458.04;105899;1254;61126;-42
2024/01/09 01:45:52;;;;;;;2.50;2.30;;;;;;;12.64;48.44;99459.17;105950;1253;61397;-42
2024/01/09 01:48:19;;;;;;;2.60;2.30;;;;;;;12.64;48.35;99456.80;105647;1256;74481;-42
2024/01/09 01:50:45;;;;;;;3.00;2.20;;;;;;;12.64;48.44;99456.80;105569;1258;65592;-42
2024/01/09 01:53:12;;;;;;;4.70;2.40;;;;;;;12.63;48.33;99458.26;105609;1256;72557;-42
2024/01/09 01:55:39;;;;;;;3.00;2.50;;;;;;;12.63;48.30;99455.46;105614;1256;61218;-42
2024/01/09 01:58:05;;;;;;;3.00;2.50;;;;;;;12.63;48.21;99451.75;105542;1253;61186;-41
2024/01/09 02:00:32;;;;;;;2.70;2.50;;;;;;;12.63;48.33;99455.52;105458;1253;74602;-41
2024/01/09 02:02:58;;;;;;;2.40;2.10;;;;;;;12.62;48.31;99458.32;105514;1253;67172;-41
2024/01/09 02:05:26;;;;;;;3.20;2.60;;;;;;;12.62;48.40;99463.91;105504;1254;72582;-41
2024/01/09 02:07:53;;;;;;;3.00;2.40;;;;;;;12.61;48.34;99468.31;105699;1259;61241;-41
2024/01/09 02:10:20;;;;;;;2.70;2.50;;;;;;;12.61;48.30;99474.23;105886;1253;61102;-40
2024/01/09 02:12:47;;;;;;;4.10;2.70;;;;;;;12.61;48.39;99475.84;105915;1254;74828;-40
2024/01/09 02:15:13;;;;;;;3.50;2.70;;;;;;;12.61;48.38;99483.73;105655;1256;65984;-42
2024/01/09 02:17:40;;;;;;;4.20;2.90;;;;;;;12.61;48.19;99486.31;105663;1253;72481;-41
2024/01/09 02:20:08;;;;;;;3.50;2.60;;;;;;;12.61;48.31;99489.59;105123;1260;61268;-41
2024/01/09 02:22:35;;;;;;;2.80;2.50;;;;;;;12.60;48.31;99493.20;105670;1252;61152;-41
2024/01/09 02:25:03;;;;;;;2.70;2.30;;;;;;;12.60;48.18;99492.17;105545;1254;74459;-41
2024/01/09 02:27:36;;;;;;;2.60;2.40;;;;;;;12.60;48.30;99496.70;105593;1256;66146;-41
2024/01/09 02:30:03;;;;;;;3.40;2.40;;;;;;;12.59;48.24;99504.33;105703;1256;71178;-41
2024/01/09 02:32:30;;;;;;;3.10;2.60;;;;;;;12.59;48.33;99505.08;105902;1256;61246;-41
2024/01/09 02:34:57;;;;;;;2.90;2.40;;;;;;;12.59;48.20;99505.51;105709;1256;61336;-41
2024/01/09 02:37:24;;;;;;;3.10;2.50;;;;;;;12.59;48.38;99506.26;105636;1253;61252;-41
2024/01/09 02:39:50;;;;;;;3.00;2.50;;;;;;;12.58;48.28;99510.08;105879;1253;61438;-41
2024/01/09 02:42:17;;;;;;;3.80;2.80;;;;;;;12.58;48.22;99513.89;105898;1253;72561;-41
2024/01/09 02:44:43;;;;;;;3.20;2.50;;;;;;;12.58;48.33;99514.91;105823;1256;61243;-41
2024/01/09 02:47:10;;;;;;;3.40;2.60;;;;;;;12.57;48.29;99511.64;105883;1253;61228;-41
2024/01/09 02:49:37;;;;;;;3.10;2.40;;;;;;;12.58;48.27;99516.41;105671;1256;74636;-41
2024/01/09 02:52:04;;;;;;;4.00;2.70;;;;;;;12.57;48.30;99514.91;105882;1253;65700;-40
2024/01/09 02:54:30;;;;;;;3.10;2.50;;;;;;;12.57;48.19;99516.96;105774;1253;72580;-42
2024/01/09 02:56:57;;;;;;;3.30;2.50;;;;;;;12.57;48.25;99514.64;105655;1255;61217;-41
2024/01/09 02:59:26;;;;;;;2.80;2.40;;;;;;;12.57;48.23;99520.40;105508;1253;61283;-40
2024/01/09 03:01:52;;;;;;;2.90;2.60;;;;;;;12.57;48.15;99522.02;105762;1256;73438;-41
2024/01/09 03:04:19;;;;;;;2.80;2.50;;;;;;;12.56;48.21;99518.67;105715;1256;65887;-41
2024/01/09 03:06:46;;;;;;;2.50;2.30;;;;;;;12.56;48.14;99515.88;106222;1253;72979;-39
2024/01/09 03:09:13;;;;;;;3.10;2.60;;;;;;;12.56;48.31;99515.40;105904;1256;61391;-40
2024/01/09 03:11:40;;;;;;;3.00;2.50;;;;;;;12.56;48.13;99511.48;106149;1256;61145;-41
2024/01/09 03:14:07;;;;;;;3.10;2.80;;;;;;;12.55;48.16;99517.08;105652;1254;74301;-42
2024/01/09 03:16:33;;;;;;;2.80;2.50;;;;;;;12.54;48.23;99517.92;105832;1255;66273;-42
2024/01/09 03:19:00;;;;;;;2.80;2.50;;;;;;;12.55;48.07;99515.40;105930;1253;73488;-42
2024/01/09 03:21:26;;;;;;;3.40;2.70;;;;;;;12.55;48.30;99515.23;105780;1256;61222;-41
2024/01/09 03:23:53;;;;;;;3.40;2.60;;;;;;;12.54;48.21;99511.61;105797;1251;61351;-40
2024/01/09 03:26:21;;;;;;;3.10;2.80;;;;;;;12.55;48.26;99513.78;105908;1252;74613;-41
2024/01/09 03:28:48;;;;;;;2.90;2.50;;;;;;;12.54;48.16;99511.08;105943;1257;64256;-41
2024/01/09 03:31:21;;;;;;;3.10;2.80;;;;;;;12.54;48.18;99513.02;105924;1251;72535;-41
2024/01/09 03:33:48;;;;;;;4.80;2.70;;;;;;;12.53;48.21;99514.52;105919;1254;61285;-41
2024/01/09 03:36:15;;;;;;;3.20;2.50;;;;;;;12.53;48.14;99513.79;105987;1251;61831;-41
2024/01/09 03:38:42;;;;;;;3.10;2.80;;;;;;;12.52;48.19;99513.14;105905;1254;74280;-41
2024/01/09 03:41:09;;;;;;;3.30;2.60;;;;;;;12.52;48.17;99516.58;105906;1256;66044;-41
2024/01/09 03:43:35;;;;;;;3.00;2.70;;;;;;;12.52;48.15;99524.05;105742;1253;72592;-40
2024/01/09 03:46:02;;;;;;;3.10;2.80;;;;;;;12.51;48.17;99521.67;105610;1256;61201;-41
2024/01/09 03:48:29;;;;;;;2.90;2.60;;;;;;;12.51;48.19;99525.61;105622;1256;61355;-42
2024/01/09 03:50:56;;;;;;;3.80;2.80;;;;;;;12.51;47.99;99528.92;105559;1254;74496;-41
2024/01/09 03:53:22;;;;;;;3.80;2.90;;;;;;;12.51;48.17;99529.63;105581;1256;65402;-40
2024/01/09 03:55:49;;;;;;;3.30;2.90;;;;;;;12.51;48.17;99528.98;105605;1253;71397;-41
2024/01/09 03:58:15;;;;;;;4.30;2.90;;;;;;;12.51;48.13;99534.36;105685;1256;61147;-41
2024/01/09 04:00:42;;;;;;;3.60;2.50;;;;;;;12.50;48.10;99533.56;105646;1252;61275;-41
2024/01/09 04:03:09;;;;;;;3.00;2.80;;;;;;;12.50;48.05;99535.16;105798;1256;74386;-40
2024/01/09 04:05:36;;;;;;;3.30;2.80;;;;;;;12.50;48.08;99541.89;105851;1256;65426;-40
2024/01/09 04:08:03;;;;;;;3.30;2.90;;;;;;;12.50;48.16;99545.11;105851;1256;73132;-40
2024/01/09 04:10:31;;;;;;;6.50;3.00;;;;;;;12.49;48.09;99545.16;105759;1256;61311;-41
2024/01/09 04:12:57;;;;;;;3.20;2.80;;;;;;;12.48;48.06;99552.84;105604;1253;61253;-42
2024/01/09 04:15:24;;;;;;;3.80;2.80;;;;;;;12.49;47.97;99555.27;105701;1253;74586;-42
2024/01/09 04:17:50;;;;;;;3.30;2.80;;;;;;;12.48;48.12;99557.25;105634;1256;65496;-40
2024/01/09 04:20:17;;;;;;;3.10;2.80;;;;;;;12.48;48.03;99559.73;105596;1253;72607;-41
2024/01/09 04:22:44;;;;;;;3.40;3.10;;;;;;;12.48;48.06;99559.78;105638;1256;61349;-40
2024/01/09 04:25:11;;;;;;;3.70;3.10;;;;;;;12.48;48.10;99565.91;105888;1251;61183;-40
2024/01/09 04:27:38;;;;;;;4.10;3.20;;;;;;;12.47;48.08;99563.86;105899;1251;74529;-40
2024/01/09 04:30:06;;;;;;;3.80;3.10;;;;;;;12.47;48.04;99565.14;105905;1257;66074;-40
2024/01/09 04:32:33;;;;;;;3.70;3.20;;;;;;;12.47;48.10;99562.67;105934;1251;72633;-41
2024/01/09 04:35:00;;;;;;;3.20;2.90;;;;;;;12.47;48.07;99570.20;105889;1256;61167;-41
2024/01/09 04:37:26;;;;;;;3.60;3.30;;;;;;;12.46;48.08;99574.40;105830;1257;61288;-41
2024/01/09 04:39:53;;;;;;;3.40;3.10;;;;;;;12.46;48.06;99574.30;105748;1251;74745;-40
2024/01/09 04:42:19;;;;;;;3.50;2.80;;;;;;;12.46;48.05;99578.44;105787;1257;66029;-41
2024/01/09 04:44:46;;;;;;;3.70;3.30;;;;;;;12.46;48.02;99582.57;105512;1257;61226;-41
2024/01/09 04:47:15;;;;;;;3.80;3.20;;;;;;;12.45;48.09;99581.38;105600;1258;61261;-42
2024/01/09 04:49:43;;;;;;;3.40;3.10;;;;;;;12.45;47.96;99584.23;105765;1256;61258;-42
2024/01/09 04:52:09;;;;;;;3.30;3.00;;;;;;;12.45;48.11;99586.21;105814;1259;74570;-41
2024/01/09 04:54:36;;;;;;;3.70;3.30;;;;;;;12.45;47.94;99586.42;105535;1257;66226;-41
2024/01/09 04:57:03;;;;;;;3.50;3.10;;;;;;;12.45;48.06;99587.39;105700;1253;73095;-41
2024/01/09 04:59:30;;;;;;;3.80;3.20;;;;;;;12.45;47.92;99590.45;105734;1257;61233;-40
2024/01/09 05:02:00;;;;;;;4.30;3.20;;;;;;;12.44;48.00;99600.55;105468;1253;61477;-41
2024/01/09 05:04:29;;;;;;;3.20;2.90;;;;;;;12.44;48.06;99603.77;105575;1257;75114;-40
2024/01/09 05:06:55;;;;;;;4.50;3.60;;;;;;;12.43;47.98;99604.96;105793;1257;63848;-39
2024/01/09 05:09:23;;;;;;;3.80;3.40;;;;;;;12.43;47.91;99610.73;105536;1253;72937;-40
2024/01/09 05:11:50;;;;;;;3.80;3.40;;;;;;;12.43;47.92;99610.06;105852;1258;61343;-40
2024/01/09 05:14:17;;;;;;;5.00;3.70;;;;;;;12.43;48.00;99614.15;105711;1253;61161;-40
2024/01/09 05:16:43;;;;;;;3.70;3.40;;;;;;;12.43;47.87;99617.64;105951;1257;74369;-41
2024/01/09 05:19:10;;;;;;;3.70;3.30;;;;;;;12.42;47.96;99617.52;105513;1257;64747;-41
2024/01/09 05:21:37;;;;;;;4.10;3.40;;;;;;;12.42;48.02;99620.27;106298;1253;72635;-39
2024/01/09 05:24:04;;;;;;;4.10;3.50;;;;;;;12.42;48.06;99622.75;105738;1257;61325;-40
2024/01/09 05:26:30;;;;;;;4.80;3.40;;;;;;;12.42;48.01;99629.99;105775;1257;61113;-40
2024/01/09 05:28:57;;;;;;;3.50;3.20;;;;;;;12.41;47.90;99629.20;105735;1259;74453;-40
2024/01/09 05:31:24;;;;;;;4.30;3.60;;;;;;;12.41;47.97;99628.34;105535;1257;65899;-42
2024/01/09 05:33:53;;;;;;;3.70;3.40;;;;;;;12.41;47.93;99633.70;105533;1253;72314;-41
2024/01/09 05:36:22;;;;;;;3.60;3.20;;;;;;;12.41;47.89;99629.09;105675;1258;61245;-41
2024/01/09 05:38:52;;;;;;;4.10;3.60;;;;;;;12.40;47.94;99640.27;105835;1257;61227;-40
2024/01/09 05:41:22;;;;;;;4.10;3.40;;;;;;;12.40;47.93;99639.77;105498;1253;74639;-40
2024/01/09 05:43:49;;;;;;;4.30;3.90;;;;;;;12.40;47.96;99648.48;105518;1259;66187;-42
2024/01/09 05:46:16;;;;;;;4.50;3.90;;;;;;;12.40;47.88;99648.41;105611;1253;73060;-42
2024/01/09 05:48:43;;;;;;;4.30;3.80;;;;;;;12.40;47.97;99650.20;105573;1259;61340;-42
2024/01/09 05:51:11;;;;;;;4.30;3.90;;;;;;;12.39;47.87;99652.98;105620;1253;61238;-41
2024/01/09 05:53:37;;;;;;;4.70;4.00;;;;;;;12.39;47.82;99657.41;105485;1258;73542;-41
2024/01/09 05:56:05;;;;;;;4.80;4.10;;;;;;;12.39;47.95;99661.16;105836;1259;63897;-41
2024/01/09 05:58:35;;;;;;;4.80;4.00;;;;;;;12.39;47.89;99662.25;105815;1253;72481;-41
2024/01/09 06:01:02;;;;;;;4.60;3.80;;;;;;;12.38;47.86;99661.80;105729;1253;61270;-42
2024/01/09 06:03:29;;;;;;;4.80;3.90;;;;;;;12.38;47.77;99660.52;105824;1253;61337;-41
2024/01/09 06:05:56;;;;;;;4.60;3.80;;;;;;;12.38;47.81;99664.28;105815;1253;74566;-41
2024/01/09 06:08:24;;;;;;;5.00;3.80;;;;;;;12.38;47.93;99667.55;105560;1257;65916;-40
2024/01/09 06:10:51;;;;;;;3.90;3.50;;;;;;;12.38;47.80;99668.25;105479;1259;72604;-40
2024/01/09 06:13:17;;;;;;;4.20;3.80;;;;;;;12.38;47.78;99671.37;105785;1259;61273;-41
2024/01/09 06:15:44;;;;;;;4.40;3.90;;;;;;;12.38;47.85;99671.31;105728;1251;61347;-41
2024/01/09 06:18:11;;;;;;;4.20;3.80;;;;;;;12.38;47.89;99676.30;105574;1256;74403;-39
2024/01/09 06:20:37;;;;;;;4.70;3.90;;;;;;;12.38;47.85;99680.08;105688;1257;65554;-42
2024/01/09 06:23:04;;;;;;;4.90;3.80;;;;;;;12.39;47.92;99682.34;105725;1254;72536;-42
2024/01/09 06:25:31;;;;;;;4.90;4.10;;;;;;;12.39;47.81;99681.80;105815;1256;61244;-42
2024/01/09 06:27:58;;;;;;;4.50;4.00;;;;;;;12.39;47.92;99687.71;105970;1253;61673;-41
2024/01/09 06:30:25;;;;;;;4.30;3.90;;;;;;;12.39;47.70;99693.23;105841;1256;74370;-40
2024/01/09 06:32:51;;;;;;;4.70;3.80;;;;;;;12.39;47.81;99696.42;105792;1256;66525;-41
2024/01/09 06:35:18;;;;;;;4.30;3.90;;;;;;;12.39;47.76;99695.13;105725;1253;72488;-41
2024/01/09 06:37:45;;;;;;;4.80;3.90;;;;;;;12.39;47.81;99701.05;105928;1256;61225;-41
2024/01/09 06:40:12;;;;;;;4.20;3.80;;;;;;;12.39;47.85;99700.60;105883;1256;61250;-41
2024/01/09 06:42:39;;;;;;;4.10;3.70;;;;;;;12.40;47.77;99705.23;105904;1256;74469;-41
2024/01/09 06:45:06;;;;;;;4.90;4.30;;;;;;;12.40;47.73;99708.23;105832;1256;65025;-41
2024/01/09 06:47:34;;;;;;;4.70;4.00;;;;;;;12.40;47.75;99712.33;105706;1253;72423;-42
2024/01/09 06:50:03;;;;;;;5.10;4.20;;;;;;;12.41;47.69;99712.06;105785;1256;61184;-40
2024/01/09 06:52:33;;;;;;;4.80;4.30;;;;;;;12.41;47.76;99712.50;105583;1253;61221;-40
2024/01/09 06:54:59;;;;;;;5.20;4.20;;;;;;;12.41;47.76;99719.96;105651;1254;74367;-40
2024/01/09 06:57:26;;;;;;;5.50;4.40;;;;;;;12.42;47.69;99717.28;105856;1256;65629;-40
2024/01/09 06:59:53;;;;;;;5.10;4.20;;;;;;;12.42;47.64;99721.16;105649;1253;72380;-40
2024/01/09 07:02:20;;;;;;;6.50;4.50;;;;;;;12.43;47.65;99727.61;105731;1256;61221;-40
2024/01/09 07:04:47;;;;;;;5.00;4.20;;;;;;;12.42;47.76;99727.34;105778;1253;61319;-41
2024/01/09 07:07:14;;;;;;;4.80;4.30;;;;;;;12.43;47.70;99731.21;105683;1256;74769;-42
2024/01/09 07:09:41;;;;;;;4.80;4.30;;;;;;;12.43;47.66;99727.98;105746;1256;64775;-41
2024/01/09 07:12:09;;;;;;;5.10;4.50;;;;;;;12.43;47.68;99729.92;105851;1256;72574;-41
2024/01/09 07:14:36;;;;;;;5.50;4.50;;;;;;;12.43;47.72;99731.00;105778;1256;61247;-41
2024/01/09 07:17:07;;;;;;;5.40;4.40;;;;;;;12.43;47.66;99733.47;105706;1253;61215;-41
2024/01/09 07:19:34;;;;;;;5.40;4.50;;;;;;;12.43;47.69;99732.02;105623;1256;74603;-40
2024/01/09 07:22:01;;;;;;;7.10;4.80;;;;;;;12.43;47.63;99734.43;105835;1256;67239;-42
2024/01/09 07:24:28;;;;;;;5.20;4.60;;;;;;;12.43;47.59;99726.86;105760;1256;72620;-41
2024/01/09 07:26:54;;;;;;;5.40;4.80;;;;;;;12.43;47.66;99730.41;105843;1256;61251;-41
2024/01/09 07:29:21;;;;;;;6.60;4.80;;;;;;;12.44;47.57;99733.36;105873;1253;61782;-41
2024/01/09 07:31:48;;;;;;;7.00;4.70;;;;;;;12.44;47.69;99735.88;105984;1256;74401;-41
2024/01/09 07:34:15;;;;;;;5.20;4.60;;;;;;;12.44;47.59;99731.74;105625;1256;64982;-41
2024/01/09 07:36:42;;;;;;;5.60;4.80;;;;;;;12.44;47.66;99733.46;105508;1259;72600;-41
2024/01/09 07:39:11;;;;;;;5.40;4.90;;;;;;;12.44;47.66;99730.73;105595;1258;61404;-42
2024/01/09 07:41:38;;;;;;;5.60;4.70;;;;;;;12.45;47.46;99732.63;106412;1253;61147;-41
2024/01/09 07:44:04;;;;;;;5.70;5.10;;;;;;;12.46;47.51;99733.70;105827;1255;74572;-41
2024/01/09 07:46:31;;;;;;;5.30;4.80;;;;;;;12.46;47.59;99735.69;105542;1253;61245;-41
2024/01/09 07:48:57;;;;;;;7.30;5.00;;;;;;;12.47;47.54;99734.66;105638;1253;72410;-39
2024/01/09 07:51:24;;;;;;;5.20;4.70;;;;;;;12.47;47.61;99738.91;105626;1259;61360;-41
2024/01/09 07:53:51;;;;;;;5.90;4.90;;;;;;;12.47;47.62;99741.39;105548;1253;61257;-41
2024/01/09 07:56:18;;;;;;;5.80;5.10;;;;;;;12.47;47.60;99743.66;105633;1253;74625;-42
2024/01/09 07:58:45;;;;;;;5.30;4.70;;;;;;;12.49;47.46;99743.61;105572;1256;65637;-41
2024/01/09 08:01:12;;;;;;;5.40;4.90;;;;;;;12.48;47.50;99738.98;105619;1254;73670;-41
2024/01/09 08:03:42;;;;;;;5.70;5.10;;;;;;;12.50;47.49;99741.67;105640;1256;61248;-40
2024/01/09 08:06:17;;;;;;;7.20;5.10;;;;;;;12.50;47.65;99741.84;105513;1256;61379;-41
2024/01/09 08:08:44;;;;;;;6.70;5.20;;;;;;;12.50;47.47;99740.27;105606;1256;74438;-41
2024/01/09 08:11:16;;;;;;;6.60;5.20;;;;;;;12.51;47.52;99738.23;105920;1254;66275;-41
2024/01/09 08:13:44;;;;;;;5.70;5.10;;;;;;;12.52;47.49;99734.52;105682;1256;72831;-40
2024/01/09 08:16:10;;;;;;;6.40;5.50;;;;;;;12.52;47.47;99739.23;105467;1256;61251;-40
2024/01/09 08:18:37;;;;;;;7.00;5.40;;;;;;;12.53;47.35;99744.49;105800;1253;61340;-41
2024/01/09 08:21:05;;;;;;;6.30;5.40;;;;;;;12.53;47.39;99740.30;105679;1253;74845;-41
2024/01/09 08:23:32;;;;;;;6.10;5.50;;;;;;;12.54;47.44;99739.01;105685;1256;66864;-41
2024/01/09 08:25:59;;;;;;;5.70;5.10;;;;;;;12.54;47.46;99739.81;105727;1252;72471;-41
2024/01/09 08:28:26;;;;;;;6.50;5.60;;;;;;;12.55;47.43;99739.29;105918;1254;61893;-39
2024/01/09 08:30:53;;;;;;;6.20;5.40;;;;;;;12.55;47.44;99742.08;105707;1251;61246;-39
2024/01/09 08:33:20;;;;;;;6.10;5.50;;;;;;;12.57;47.48;99744.40;105776;1252;74399;-41
2024/01/09 08:35:52;;;;;;;6.50;5.30;;;;;;;12.57;47.43;99748.38;105840;1254;67112;-40
2024/01/09 08:38:19;;;;;;;6.30;5.50;;;;;;;12.58;47.46;99747.89;105907;1252;73531;-42
2024/01/09 08:40:51;;;;;;;6.30;5.60;;;;;;;12.59;47.44;99753.13;105879;1257;61583;-42
2024/01/09 08:43:17;;;;;;;6.70;5.80;;;;;;;12.59;47.37;99753.98;105796;1254;61286;-42
2024/01/09 08:45:46;;;;;;;7.10;5.50;;;;;;;12.60;47.40;99757.70;105538;1257;75004;-41
2024/01/09 08:48:12;;;;;;;6.40;5.60;;;;;;;12.61;47.31;99761.25;105622;1257;66475;-42
2024/01/09 08:50:39;;;;;;;7.40;5.40;;;;;;;12.61;47.46;99767.06;105669;1253;72599;-40
2024/01/09 08:53:06;;;;;;;6.60;5.40;;;;;;;12.62;47.41;99764.01;105753;1258;61104;-40
2024/01/09 08:55:33;;;;;;;6.80;6.10;;;;;;;12.63;47.51;99758.36;105690;1253;61237;-40
2024/01/09 08:58:00;;;;;;;5.60;5.00;;;;;;;12.64;47.46;99758.20;105642;1257;74384;-41
2024/01/09 09:00:27;;;;;;;6.50;5.80;;;;;;;12.64;47.46;99758.68;105810;1257;67047;-40
2024/01/09 09:02:54;;;;;;;6.30;5.60;;;;;;;12.65;47.41;99757.67;105485;1254;72399;-41
2024/01/09 09:05:21;;;;;;;8.00;5.60;;;;;;;12.65;47.39;99766.33;105662;1257;61259;-41
2024/01/09 09:07:47;;;;;;;5.80;5.30;;;;;;;12.66;47.36;99766.23;105679;1253;61234;-41
2024/01/09 09:10:14;;;;;;;5.80;5.10;;;;;;;12.67;47.43;99768.38;105517;1254;74549;-41
2024/01/09 09:12:41;;;;;;;7.20;5.70;;;;;;;12.68;47.33;99768.55;105587;1257;65925;-41
2024/01/09 09:15:08;;;;;;;6.00;5.40;;;;;;;12.69;47.27;99769.52;105500;1254;72379;-41
2024/01/09 09:17:35;;;;;;;7.20;5.60;;;;;;;12.70;47.38;99771.52;105553;1258;61258;-41
2024/01/09 09:20:05;;;;;;;6.70;5.60;;;;;;;12.70;47.40;99767.15;105758;1258;61318;-41
2024/01/09 09:22:33;;;;;;;6.40;5.60;;;;;;;12.71;47.38;99768.94;105657;1253;74734;-40
2024/01/09 09:25:00;;;;;;;6.00;5.40;;;;;;;12.72;47.42;99769.31;105756;1251;66039;-41
2024/01/09 09:27:27;;;;;;;6.70;5.70;;;;;;;12.73;47.35;99770.19;105716;1254;72585;-39
2024/01/09 09:29:53;;;;;;;6.20;5.60;;;;;;;12.74;47.35;99768.48;105714;1256;61234;-41
2024/01/09 09:32:20;;;;;;;6.90;5.60;;;;;;;12.74;47.39;99767.83;105827;1257;61269;-41
2024/01/09 09:34:47;;;;;;;7.00;5.50;;;;;;;12.76;47.31;99768.33;105700;1258;74378;-40
2024/01/09 09:37:18;;;;;;;6.80;6.00;;;;;;;12.76;47.36;99768.76;105857;1251;67310;-41
2024/01/09 09:39:44;;;;;;;6.30;5.60;;;;;;;12.77;47.38;99766.60;105717;1251;73639;-41
2024/01/09 09:42:11;;;;;;;6.40;5.60;;;;;;;12.78;47.32;99770.59;105788;1256;63079;-40
2024/01/09 09:44:38;;;;;;;7.10;5.60;;;;;;;12.79;47.38;99770.33;105608;1253;61349;-41
2024/01/09 09:47:05;;;;;;;6.60;5.80;;;;;;;12.81;47.24;99764.80;105632;1254;76147;-40
2024/01/09 09:49:33;;;;;;;6.80;6.00;;;;;;;12.81;47.32;99767.92;105510;1259;65267;-41
2024/01/09 09:51:59;;;;;;;6.80;6.10;;;;;;;12.82;47.27;99764.38;105433;1259;73707;-41
2024/01/09 09:54:26;;;;;;;7.30;6.00;;;;;;;12.83;47.25;99762.77;105276;1262;61916;-41
2024/01/09 09:56:53;;;;;;;7.00;5.70;;;;;;;12.84;47.40;99763.25;105773;1253;61326;-41
2024/01/09 09:59:20;;;;;;;7.90;5.40;;;;;;;12.85;47.25;99752.83;105440;1259;75325;-39
2024/01/09 10:01:47;;;;;;;6.00;5.40;;;;;;;12.86;47.25;99754.60;105957;1257;65434;-37
2024/01/09 10:04:21;;;;;;;6.50;5.70;;;;;;;12.87;47.35;99749.28;105273;1254;74914;-42
2024/01/09 10:06:48;;;;;;;6.10;5.50;;;;;;;12.89;47.25;99755.31;105950;1253;62057;-41
2024/01/09 10:09:15;;;;;;;6.10;5.40;;;;;;;12.89;47.26;99753.22;105333;1254;61325;-40
2024/01/09 10:11:41;;;;;;;8.00;5.50;;;;;;;12.91;47.21;99751.71;105925;1259;75383;-40
2024/01/09 10:14:09;;;;;;;6.20;5.60;;;;;;;12.91;47.29;99747.84;105638;1259;66103;-42
2024/01/09 10:16:55;;;;;;;6.80;6.10;;;;;;;12.93;47.30;99746.89;105544;1257;72570;-41
2024/01/09 10:19:22;;;;;;;6.70;5.70;;;;;;;12.94;47.28;99739.20;105646;1256;61242;-41
2024/01/09 10:21:49;;;;;;;6.70;6.00;;;;;;;12.94;47.14;99739.42;105996;1253;61262;-41
2024/01/09 10:24:17;;;;;;;6.40;5.80;;;;;;;12.96;47.13;99733.02;105829;1251;75636;-41
2024/01/09 10:26:44;;;;;;;7.00;5.80;;;;;;;12.97;47.14;99726.02;106156;1255;66929;-42
2024/01/09 10:29:11;;;;;;;6.50;5.80;;;;;;;12.98;47.20;99722.27;105637;1256;73674;-41
2024/01/09 10:31:41;;;;;;;6.20;5.60;;;;;;;12.99;47.14;99717.48;105725;1265;61237;-41
2024/01/09 10:34:08;;;;;;;7.60;6.10;;;;;;;13.00;47.09;99717.88;105717;1257;61210;-41
2024/01/09 10:36:35;;;;;;;6.40;5.80;;;;;;;13.01;47.19;99716.24;105689;1255;74380;-40
2024/01/09 10:39:05;;;;;;;6.20;5.60;;;;;;;13.01;47.11;99718.52;105912;1256;66976;-40
2024/01/09 10:41:32;;;;;;;6.90;6.00;;;;;;;13.02;47.08;99718.68;105959;1256;71173;-40
2024/01/09 10:44:00;;;;;;;6.10;5.50;;;;;;;13.03;47.09;99720.98;105628;1254;61327;-40
2024/01/09 10:46:27;;;;;;;7.00;6.20;;;;;;;13.03;47.07;99723.30;106239;1253;61818;-42
2024/01/09 10:48:54;;;;;;;7.20;6.30;;;;;;;13.05;47.26;99721.45;105632;1255;74523;-40
2024/01/09 10:51:22;;;;;;;6.50;5.70;;;;;;;13.05;47.16;99724.41;105500;1259;66410;-39
2024/01/09 10:53:50;;;;;;;7.40;6.00;;;;;;;13.07;47.11;99725.84;105407;1258;73418;-39
2024/01/09 10:56:19;;;;;;;7.30;6.20;;;;;;;13.07;47.10;99719.16;105581;1256;61221;-42
2024/01/09 10:58:47;;;;;;;8.10;6.10;;;;;;;13.08;47.05;99722.88;105603;1257;61324;-41
2024/01/09 11:01:13;;;;;;;7.40;6.10;;;;;;;13.08;47.00;99721.96;105659;1254;75380;-43
2024/01/09 11:03:41;;;;;;;6.30;5.70;;;;;;;13.09;46.95;99721.75;105598;1257;67068;-42
2024/01/09 11:06:08;;;;;;;7.00;5.90;;;;;;;13.10;46.98;99714.76;105620;1256;73093;-41
2024/01/09 11:08:36;;;;;;;6.40;5.70;;;;;;;13.11;47.10;99714.27;105609;1258;61283;-43
2024/01/09 11:11:08;;;;;;;7.60;6.00;;;;;;;13.11;47.04;99708.34;105742;1259;61244;-43
2024/01/09 11:13:36;;;;;;;6.60;5.60;;;;;;;13.11;46.95;99703.89;105857;1254;74720;-41
2024/01/09 11:16:03;;;;;;;6.20;5.60;;;;;;;13.12;46.93;99699.64;105560;1257;66317;-40
2024/01/09 11:18:30;;;;;;;7.00;5.80;;;;;;;13.12;46.99;99698.89;105557;1257;72368;-41
2024/01/09 11:21:03;;;;;;;6.00;5.40;;;;;;;13.13;47.08;99698.73;105558;1256;61232;-41
2024/01/09 11:24:00;;;;;;;6.90;5.80;;;;;;;13.13;47.00;99703.31;105536;1257;61215;-41